IS49 weather

Illinois Valley Community Hospital Heliport
Peru, Illinois, United States

Public forecast

Using degrees Fahrenheit for public forecast. Weather courtesy of forecast.io.

METAR (pilot weather report)

Closest report is Illinois Valley Regional Airport-Walter A Duncan Field, 1.9 nm (3.5 km) NW. Retrieved 2019/08/20 23:35 UTC (2 minutes ago):

KVYS 202335Z AUTO 02008KT 10SM CLR 25/20 A2992 RMK AO2 T02510202

TAF (pilot weather forecast)

Closest forecast is General Wayne A. Downing Peoria International Airport, 47.5 nm (88.1 km) SSW. Retrieved 2019/08/20 18:48 UTC (5 hours ago):

TAF KPIA 201747Z 2018/2118 19008KT P6SM FEW030 BKN120 FM210000 VRB03KT P6SM SCT120 BKN250 TEMPO 2109/2112 4SM BR FM211200 VRB03KT P6SM BKN027 FM211500 31005KT P6SM BKN012